Time;durP1;ratioP1;P1;durP2;ratioP2;P2;SDS_P1;SDS_P2;PMS_P1;PMS_P2;Temp;Humidity;BMP_temperature;BMP_pressure;BME280_temperature;BME280_humidity;BME280_pressure;Samples;Min_cycle;Max_cycle;Signal;HPM_P1;HPM_P2
2023/10/29 00:01:05;;;;;;;2.80;0.85;;;16.20;99.90;;;;;;5001245;28;20281;-62
2023/10/29 00:03:32;;;;;;;3.00;1.17;;;16.10;99.90;;;;;;5003307;28;20291;-62
2023/10/29 00:05:58;;;;;;;1.77;0.95;;;16.10;99.90;;;;;;5004846;28;20218;-62
2023/10/29 00:08:27;;;;;;;1.50;0.88;;;15.90;99.90;;;;;;5003511;28;20211;-62
2023/10/29 00:10:53;;;;;;;1.50;0.77;;;15.90;99.90;;;;;;5001138;28;20234;-62
2023/10/29 00:13:23;;;;;;;1.55;0.80;;;16.00;99.90;;;;;;5001811;28;20211;-62
2023/10/29 00:15:49;;;;;;;1.88;0.90;;;16.00;99.90;;;;;;5004748;28;20211;-63
2023/10/29 00:18:17;;;;;;;2.22;1.40;;;15.90;99.90;;;;;;5004358;28;20207;-62
2023/10/29 00:20:44;;;;;;;1.92;0.98;;;15.80;99.90;;;;;;5004238;28;20727;-62
2023/10/29 00:23:11;;;;;;;3.10;0.98;;;15.80;99.90;;;;;;5004546;28;20210;-62
2023/10/29 00:25:39;;;;;;;1.80;1.00;;;15.80;99.90;;;;;;5001617;28;20215;-62
2023/10/29 00:28:07;;;;;;;1.65;0.90;;;15.70;99.90;;;;;;5007459;28;20207;-62
2023/10/29 00:30:34;;;;;;;2.55;0.90;;;15.70;99.90;;;;;;5001650;28;20610;-62
2023/10/29 00:33:01;;;;;;;1.92;0.80;;;15.70;99.90;;;;;;5000966;28;20210;-63
2023/10/29 00:35:27;;;;;;;2.25;0.90;;;15.70;99.90;;;;;;5008798;28;20210;-62
2023/10/29 00:37:54;;;;;;;1.40;1.00;;;15.80;99.90;;;;;;5005386;28;20199;-63
2023/10/29 00:40:21;;;;;;;1.65;0.85;;;15.80;99.90;;;;;;5003425;28;20215;-63
2023/10/29 00:42:49;;;;;;;2.67;0.80;;;15.90;99.90;;;;;;5004575;28;20207;-63
2023/10/29 00:45:15;;;;;;;3.60;1.20;;;15.90;99.90;;;;;;5003980;28;20203;-63
2023/10/29 00:47:42;;;;;;;3.15;1.10;;;16.00;99.90;;;;;;5000407;28;20673;-64
2023/10/29 00:50:10;;;;;;;1.50;0.80;;;16.00;99.90;;;;;;5007384;28;20227;-63
2023/10/29 00:52:37;;;;;;;2.20;1.08;;;16.00;99.90;;;;;;5001147;28;20203;-63
2023/10/29 00:55:05;;;;;;;3.30;0.95;;;16.00;99.90;;;;;;5006681;28;20207;-63
2023/10/29 00:57:31;;;;;;;1.95;1.10;;;16.10;99.90;;;;;;5001886;28;20215;-63
2023/10/29 00:59:59;;;;;;;1.13;0.82;;;16.10;99.90;;;;;;5005578;28;20225;-62
2023/10/29 01:02:27;;;;;;;1.63;1.00;;;16.10;99.90;;;;;;5002464;28;20211;-62
2023/10/29 01:04:54;;;;;;;1.40;0.88;;;16.10;99.90;;;;;;5000102;28;20204;-63
2023/10/29 01:07:20;;;;;;;1.35;0.70;;;16.10;99.90;;;;;;5000566;28;20214;-61
2023/10/29 01:09:47;;;;;;;1.25;0.70;;;16.10;99.90;;;;;;5003286;28;20289;-63
2023/10/29 01:12:17;;;;;;;0.88;0.68;;;16.10;99.90;;;;;;5003416;28;20584;-62
2023/10/29 01:14:44;;;;;;;1.20;0.98;;;16.10;99.90;;;;;;5000285;28;20286;-63
2023/10/29 01:17:12;;;;;;;1.48;0.70;;;16.20;99.90;;;;;;5000323;28;20207;-63
2023/10/29 01:19:39;;;;;;;1.80;0.70;;;16.20;99.90;;;;;;5002482;28;20227;-63
2023/10/29 01:22:06;;;;;;;3.13;1.00;;;16.20;99.90;;;;;;5003292;28;20599;-63
2023/10/29 01:24:34;;;;;;;2.42;0.93;;;16.20;99.90;;;;;;5001483;28;20208;-63
2023/10/29 01:27:03;;;;;;;2.40;0.80;;;16.30;99.90;;;;;;4999961;28;20208;-62
2023/10/29 01:29:30;;;;;;;2.10;0.90;;;16.30;99.90;;;;;;5001463;28;20246;-63
2023/10/29 01:31:57;;;;;;;2.10;0.85;;;16.40;99.90;;;;;;5003309;28;20213;-62
2023/10/29 01:34:25;;;;;;;1.05;0.70;;;16.40;99.90;;;;;;5002740;28;20238;-63
2023/10/29 01:36:52;;;;;;;2.03;0.70;;;16.40;99.90;;;;;;5000085;28;20219;-63
2023/10/29 01:39:19;;;;;;;2.47;0.88;;;16.30;99.90;;;;;;4999848;28;20207;-63
2023/10/29 01:41:45;;;;;;;2.85;0.90;;;16.40;99.90;;;;;;4999788;28;20203;-63
2023/10/29 01:44:12;;;;;;;1.70;0.77;;;16.40;99.90;;;;;;5007440;28;20203;-63
2023/10/29 01:46:39;;;;;;;1.20;0.93;;;16.40;99.90;;;;;;5000788;28;20317;-63
2023/10/29 01:49:09;;;;;;;2.55;0.50;;;16.40;99.90;;;;;;4999989;28;20310;-63
2023/10/29 01:51:37;;;;;;;2.17;0.98;;;16.40;99.90;;;;;;5007532;28;20226;-63
2023/10/29 01:54:04;;;;;;;1.40;0.60;;;16.40;99.90;;;;;;5005529;28;20199;-63
2023/10/29 01:56:31;;;;;;;2.92;0.90;;;16.50;99.90;;;;;;5001493;28;20559;-63
2023/10/29 01:58:58;;;;;;;1.23;0.70;;;16.40;99.90;;;;;;4999894;28;20203;-63
2023/10/29 02:01:25;;;;;;;2.03;0.80;;;16.40;99.90;;;;;;5000156;28;20227;-63
2023/10/29 02:03:52;;;;;;;3.10;1.20;;;16.40;99.90;;;;;;5003182;28;20225;-63
2023/10/29 02:06:18;;;;;;;2.33;1.10;;;16.30;99.90;;;;;;5003201;28;20207;-63
2023/10/29 02:08:47;;;;;;;1.00;0.70;;;16.20;99.90;;;;;;4999374;28;20588;-63
2023/10/29 02:11:13;;;;;;;1.05;0.90;;;16.30;99.90;;;;;;4999386;28;20638;-63
2023/10/29 02:13:40;;;;;;;2.50;1.00;;;16.20;99.90;;;;;;5002177;28;20220;-62
2023/10/29 02:16:08;;;;;;;1.60;0.90;;;16.20;99.90;;;;;;5004615;28;20211;-62
2023/10/29 02:18:35;;;;;;;1.58;0.80;;;16.10;99.90;;;;;;5004644;28;20199;-62
2023/10/29 02:21:02;;;;;;;3.00;0.90;;;16.10;99.90;;;;;;5003047;28;20227;-62
2023/10/29 02:23:30;;;;;;;2.10;0.73;;;16.00;99.90;;;;;;5011198;28;20261;-63
2023/10/29 02:25:57;;;;;;;1.00;0.70;;;16.00;99.90;;;;;;5008234;28;20203;-62
2023/10/29 02:28:24;;;;;;;1.23;0.50;;;16.00;99.90;;;;;;5006103;28;20203;-63
2023/10/29 02:30:51;;;;;;;1.13;0.50;;;15.90;99.90;;;;;;5002756;28;20226;-62
2023/10/29 02:33:18;;;;;;;2.13;0.60;;;15.80;99.90;;;;;;5003058;28;20282;-62
2023/10/29 02:35:46;;;;;;;0.73;0.50;;;15.70;99.90;;;;;;5005803;28;20207;-62
2023/10/29 02:38:14;;;;;;;0.85;0.55;;;15.70;99.90;;;;;;5006163;28;20688;-62
2023/10/29 02:40:43;;;;;;;2.72;0.60;;;15.70;99.90;;;;;;5003275;28;20704;-62
2023/10/29 02:43:10;;;;;;;1.92;0.73;;;15.80;99.90;;;;;;5009497;28;20269;-62
2023/10/29 02:45:37;;;;;;;0.53;0.50;;;15.70;99.90;;;;;;5004196;28;20223;-64
2023/10/29 02:48:04;;;;;;;1.50;0.57;;;15.70;99.90;;;;;;5008243;28;20684;-62
2023/10/29 02:50:30;;;;;;;0.50;0.45;;;15.60;99.90;;;;;;5004601;28;20233;-61
2023/10/29 02:52:57;;;;;;;2.73;0.50;;;15.70;99.90;;;;;;5002874;28;20222;-62
2023/10/29 02:55:24;;;;;;;0.80;0.77;;;15.60;99.90;;;;;;5003356;28;20207;-62
2023/10/29 02:57:52;;;;;;;2.10;1.00;;;15.70;99.90;;;;;;5006200;28;20257;-62
2023/10/29 03:00:18;;;;;;;0.85;0.50;;;15.80;99.90;;;;;;5006090;28;20599;-62
2023/10/29 03:02:45;;;;;;;1.88;0.68;;;15.80;99.90;;;;;;5002295;28;20588;-61
2023/10/29 03:05:12;;;;;;;1.00;0.68;;;15.80;99.90;;;;;;5009632;28;20218;-62
2023/10/29 03:07:39;;;;;;;1.45;0.90;;;15.90;99.90;;;;;;5003620;28;20207;-61
2023/10/29 03:10:06;;;;;;;0.60;0.52;;;15.90;99.90;;;;;;5002491;28;20642;-63
2023/10/29 03:12:33;;;;;;;1.13;0.65;;;15.90;99.90;;;;;;5010265;28;20210;-63
2023/10/29 03:15:01;;;;;;;0.63;0.50;;;16.00;99.90;;;;;;5002265;28;20204;-61
2023/10/29 03:17:28;;;;;;;1.20;0.60;;;15.90;99.90;;;;;;5002632;28;20655;-62
2023/10/29 03:19:55;;;;;;;2.65;0.60;;;15.90;99.90;;;;;;5005575;28;20230;-62
2023/10/29 03:22:21;;;;;;;2.00;0.63;;;16.00;99.90;;;;;;5005444;28;20203;-63
2023/10/29 03:24:48;;;;;;;1.85;0.40;;;16.00;99.90;;;;;;5002390;28;20199;-62
2023/10/29 03:27:15;;;;;;;2.13;0.60;;;16.00;99.90;;;;;;5002105;28;20211;-62
2023/10/29 03:29:42;;;;;;;1.63;0.77;;;16.10;99.90;;;;;;5004752;28;20224;-61
2023/10/29 03:32:10;;;;;;;1.42;0.40;;;16.20;99.90;;;;;;5005262;28;20207;-61
2023/10/29 03:34:36;;;;;;;0.90;0.60;;;16.10;99.90;;;;;;5003651;28;20225;-62
2023/10/29 03:37:03;;;;;;;1.27;0.77;;;16.10;99.90;;;;;;5002119;28;20274;-62
2023/10/29 03:39:30;;;;;;;0.30;0.30;;;16.00;99.90;;;;;;5002930;28;20207;-62
2023/10/29 03:41:57;;;;;;;0.70;0.60;;;16.00;99.90;;;;;;5004922;28;20577;-62
2023/10/29 03:44:24;;;;;;;2.08;0.55;;;16.00;99.90;;;;;;5004975;28;20211;-62
2023/10/29 03:46:51;;;;;;;0.60;0.55;;;16.10;99.90;;;;;;5001500;28;20591;-64
2023/10/29 03:49:19;;;;;;;1.23;0.70;;;16.10;99.90;;;;;;5001434;28;20199;-63
2023/10/29 03:51:47;;;;;;;0.85;0.55;;;16.10;99.90;;;;;;5004788;28;20215;-62
2023/10/29 03:54:14;;;;;;;2.22;0.50;;;16.10;99.90;;;;;;5005307;28;20299;-62
2023/10/29 03:56:41;;;;;;;0.60;0.40;;;16.10;99.90;;;;;;5002523;28;20209;-63
2023/10/29 03:59:08;;;;;;;0.77;0.50;;;16.00;99.90;;;;;;5001285;28;20208;-62
2023/10/29 04:01:35;;;;;;;1.07;0.70;;;16.00;99.90;;;;;;5002811;28;20243;-63
2023/10/29 04:04:03;;;;;;;1.33;0.80;;;16.00;99.90;;;;;;5004988;28;20226;-63
2023/10/29 04:06:32;;;;;;;1.05;0.77;;;16.00;99.90;;;;;;5003886;28;20207;-62
2023/10/29 04:08:59;;;;;;;0.90;0.70;;;16.10;99.90;;;;;;5001282;28;20199;-62
2023/10/29 04:11:25;;;;;;;2.70;1.10;;;16.10;99.90;;;;;;5001099;28;20232;-63
2023/10/29 04:13:52;;;;;;;1.48;0.93;;;16.10;99.90;;;;;;5004712;28;20208;-62
2023/10/29 04:16:19;;;;;;;1.65;0.70;;;16.10;99.90;;;;;;5004845;28;20293;-62
2023/10/29 04:18:46;;;;;;;1.92;1.45;;;16.20;99.90;;;;;;5002039;28;20211;-62
2023/10/29 04:21:13;;;;;;;1.40;0.80;;;16.20;99.90;;;;;;5000899;28;20270;-63
2023/10/29 04:23:41;;;;;;;2.33;0.90;;;16.20;99.90;;;;;;5003441;28;20218;-63
2023/10/29 04:26:08;;;;;;;1.13;0.98;;;16.20;99.90;;;;;;5004352;28;20199;-63
2023/10/29 04:28:35;;;;;;;2.47;1.20;;;16.10;99.90;;;;;;5002673;28;20204;-63
2023/10/29 04:31:01;;;;;;;4.25;1.58;;;16.10;99.90;;;;;;5000473;28;20664;-63
2023/10/29 04:33:28;;;;;;;10.30;7.40;;;16.10;99.90;;;;;;5001212;28;20207;-63
2023/10/29 04:35:55;;;;;;;2.03;1.35;;;16.10;99.90;;;;;;5003991;28;20203;-63
2023/10/29 04:38:21;;;;;;;0.57;0.43;;;16.00;99.90;;;;;;5003391;28;20274;-63
2023/10/29 04:40:50;;;;;;;1.83;1.23;;;16.00;99.90;;;;;;5000549;28;20270;-63
2023/10/29 04:43:17;;;;;;;3.97;1.55;;;15.90;99.90;;;;;;5000669;28;20238;-63
2023/10/29 04:45:44;;;;;;;2.05;0.57;;;15.90;99.90;;;;;;5003224;28;20234;-63
2023/10/29 04:48:10;;;;;;;0.93;0.73;;;15.90;99.90;;;;;;5003779;28;20210;-62
2023/10/29 04:50:37;;;;;;;2.65;0.93;;;15.90;99.90;;;;;;5001778;28;20256;-62
2023/10/29 04:53:04;;;;;;;2.30;1.27;;;15.90;99.90;;;;;;5000564;28;20288;-62
2023/10/29 04:55:31;;;;;;;3.80;2.30;;;15.90;99.90;;;;;;5001139;28;20208;-62
2023/10/29 04:57:59;;;;;;;0.90;0.73;;;16.00;99.90;;;;;;5004010;28;20229;-61
2023/10/29 05:00:26;;;;;;;1.95;0.90;;;16.00;99.90;;;;;;5003709;28;20246;-60
2023/10/29 05:02:52;;;;;;;1.57;0.97;;;16.00;99.90;;;;;;5000235;28;20203;-62
2023/10/29 05:05:19;;;;;;;1.00;0.90;;;16.00;99.90;;;;;;5000738;28;20216;-61
2023/10/29 05:07:46;;;;;;;1.77;1.30;;;16.10;99.90;;;;;;5002799;28;20218;-62
2023/10/29 05:10:13;;;;;;;2.85;1.00;;;16.10;99.90;;;;;;5003825;28;20233;-62
2023/10/29 05:12:40;;;;;;;2.22;1.00;;;16.00;99.90;;;;;;5001670;28;20320;-62
2023/10/29 05:15:12;;;;;;;2.92;0.90;;;16.00;99.90;;;;;;5000317;28;20211;-63
2023/10/29 05:17:39;;;;;;;1.08;0.77;;;16.00;99.90;;;;;;5001832;28;20217;-63
2023/10/29 05:20:09;;;;;;;1.20;1.10;;;16.00;99.90;;;;;;5003394;28;20219;-62
2023/10/29 05:22:36;;;;;;;1.98;1.20;;;15.90;99.90;;;;;;5001782;28;20677;-62
2023/10/29 05:25:04;;;;;;;1.80;1.10;;;16.00;99.90;;;;;;5000275;28;20211;-62
2023/10/29 05:27:31;;;;;;;1.63;0.70;;;16.00;99.90;;;;;;5000523;28;20370;-62
2023/10/29 05:29:59;;;;;;;0.90;0.68;;;16.00;99.90;;;;;;5003193;28;20223;-62
2023/10/29 05:32:27;;;;;;;1.48;0.80;;;16.10;99.90;;;;;;5003138;28;20213;-62
2023/10/29 05:34:54;;;;;;;1.63;1.00;;;16.20;99.90;;;;;;4999734;28;20295;-61
2023/10/29 05:37:20;;;;;;;3.17;1.33;;;16.30;99.90;;;;;;5007436;28;20210;-62
2023/10/29 05:39:47;;;;;;;1.65;0.93;;;16.30;99.90;;;;;;5000542;28;20727;-62
2023/10/29 05:42:14;;;;;;;1.42;1.00;;;16.40;99.90;;;;;;5006130;28;20195;-61
2023/10/29 05:44:41;;;;;;;2.72;1.00;;;16.50;99.90;;;;;;5001223;28;20731;-63
2023/10/29 05:47:07;;;;;;;1.13;0.90;;;16.50;99.90;;;;;;4999675;28;20621;-63
2023/10/29 05:49:35;;;;;;;1.20;0.70;;;16.50;99.90;;;;;;5008366;28;20590;-63
2023/10/29 05:52:02;;;;;;;1.40;0.60;;;16.60;99.90;;;;;;5003571;28;20220;-62
2023/10/29 05:54:29;;;;;;;0.70;0.57;;;16.60;99.90;;;;;;5004081;28;20230;-63
2023/10/29 05:56:56;;;;;;;2.28;1.70;;;16.70;99.90;;;;;;5007353;28;20285;-63
2023/10/29 05:59:23;;;;;;;0.93;0.82;;;16.60;99.90;;;;;;5007110;28;20210;-62
2023/10/29 06:01:49;;;;;;;3.05;2.33;;;16.70;99.90;;;;;;5003710;28;20196;-63
2023/10/29 06:04:16;;;;;;;1.73;1.10;;;16.70;99.90;;;;;;5003530;28;20242;-63
2023/10/29 06:06:44;;;;;;;1.20;0.80;;;16.80;99.90;;;;;;5005777;28;20207;-63
2023/10/29 06:09:11;;;;;;;0.70;0.55;;;16.90;99.90;;;;;;5006991;28;20218;-63
2023/10/29 06:11:41;;;;;;;2.80;1.10;;;16.90;99.90;;;;;;5004933;28;20226;-63
2023/10/29 06:14:07;;;;;;;0.75;0.40;;;17.00;99.80;;;;;;5003703;28;20204;-63
2023/10/29 06:16:34;;;;;;;1.50;0.90;;;17.00;99.60;;;;;;5011383;28;20470;-63
2023/10/29 06:19:02;;;;;;;1.48;0.77;;;17.00;99.90;;;;;;5008039;28;20207;-63
2023/10/29 06:21:29;;;;;;;2.13;0.80;;;16.90;99.90;;;;;;5006388;28;20222;-62
2023/10/29 06:23:57;;;;;;;1.67;0.90;;;16.80;99.90;;;;;;5007145;28;20210;-62
2023/10/29 06:26:24;;;;;;;1.77;0.93;;;16.70;99.90;;;;;;5006733;28;20203;-63
2023/10/29 06:28:51;;;;;;;1.40;1.00;;;16.70;99.90;;;;;;5003324;28;20211;-62
2023/10/29 06:31:17;;;;;;;1.70;1.20;;;16.50;99.90;;;;;;5009487;28;20227;-62
2023/10/29 06:33:44;;;;;;;2.10;1.25;;;16.30;99.90;;;;;;5004633;28;20207;-63
2023/10/29 06:36:11;;;;;;;2.70;1.20;;;16.30;99.90;;;;;;5002868;28;20291;-62
2023/10/29 06:38:38;;;;;;;1.40;0.98;;;16.30;99.90;;;;;;5004388;28;20214;-63
2023/10/29 06:41:06;;;;;;;1.40;1.20;;;16.30;99.90;;;;;;5006383;28;20218;-63
2023/10/29 06:43:34;;;;;;;3.35;1.33;;;16.40;99.90;;;;;;5006002;28;20203;-62
2023/10/29 06:46:01;;;;;;;2.70;1.55;;;16.50;99.90;;;;;;5003083;28;20208;-61
2023/10/29 06:48:28;;;;;;;3.88;1.33;;;16.50;99.90;;;;;;5003023;28;20207;-63
2023/10/29 06:50:54;;;;;;;3.85;1.35;;;16.50;99.90;;;;;;5002648;28;20720;-63
2023/10/29 06:53:21;;;;;;;3.45;1.95;;;16.40;99.90;;;;;;5009724;28;20720;-63
2023/10/29 06:55:48;;;;;;;1.88;1.17;;;16.40;99.90;;;;;;5003541;28;20214;-63
2023/10/29 06:58:16;;;;;;;7.28;4.00;;;16.40;99.90;;;;;;5008566;28;20203;-65
2023/10/29 07:00:42;;;;;;;2.53;1.67;;;16.40;99.90;;;;;;5003923;28;20705;-64
2023/10/29 07:03:09;;;;;;;3.30;1.30;;;16.40;99.90;;;;;;5002013;28;20214;-63
2023/10/29 07:05:36;;;;;;;3.08;1.30;;;16.40;99.90;;;;;;5010559;28;20199;-63
2023/10/29 07:08:03;;;;;;;4.28;1.45;;;16.50;99.90;;;;;;5002876;28;20200;-63
2023/10/29 07:10:29;;;;;;;2.10;1.48;;;16.50;99.90;;;;;;5010126;28;20234;-61
2023/10/29 07:12:56;;;;;;;2.88;1.65;;;16.50;99.90;;;;;;5002263;28;20208;-60
2023/10/29 07:15:25;;;;;;;2.10;1.80;;;16.50;99.90;;;;;;5009701;28;20214;-62
2023/10/29 07:17:52;;;;;;;3.70;1.70;;;16.40;99.90;;;;;;5002757;28;20207;-62
2023/10/29 07:20:18;;;;;;;2.55;1.90;;;16.40;99.90;;;;;;5002457;28;20262;-62
2023/10/29 07:22:45;;;;;;;3.42;2.08;;;16.40;99.90;;;;;;5004842;28;20608;-64
2023/10/29 07:25:12;;;;;;;1.58;1.02;;;16.40;99.90;;;;;;5005761;28;20203;-61
2023/10/29 07:27:39;;;;;;;1.08;0.98;;;16.40;99.90;;;;;;5004593;28;20229;-61
2023/10/29 07:30:07;;;;;;;1.15;1.00;;;16.30;99.90;;;;;;5002304;28;20231;-59
2023/10/29 07:32:36;;;;;;;3.25;1.23;;;16.30;99.90;;;;;;5002600;28;20234;-60
2023/10/29 07:35:03;;;;;;;3.50;1.40;;;16.10;99.90;;;;;;5005636;28;20242;-60
2023/10/29 07:37:30;;;;;;;3.42;0.90;;;16.00;99.90;;;;;;5005978;28;20198;-61
2023/10/29 07:39:56;;;;;;;4.93;0.98;;;16.00;99.90;;;;;;5001888;28;20702;-60
2023/10/29 07:42:24;;;;;;;1.58;1.25;;;16.00;99.90;;;;;;5001855;28;20752;-62
2023/10/29 07:44:51;;;;;;;2.73;1.30;;;16.00;99.90;;;;;;5004703;28;20214;-60
2023/10/29 07:47:19;;;;;;;2.90;1.80;;;15.90;99.90;;;;;;5005247;28;20203;-61
2023/10/29 07:49:47;;;;;;;4.47;2.45;;;15.50;99.90;;;;;;5003117;28;20234;-61
2023/10/29 07:52:13;;;;;;;3.97;1.30;;;15.20;99.90;;;;;;5001570;28;20219;-59
2023/10/29 07:54:41;;;;;;;3.55;1.20;;;14.90;99.90;;;;;;5002821;28;20290;-59
2023/10/29 07:57:07;;;;;;;2.60;1.30;;;14.80;99.90;;;;;;5005117;28;20573;-59
2023/10/29 07:59:34;;;;;;;3.37;1.43;;;14.70;99.90;;;;;;5004418;28;20203;-59
2023/10/29 08:02:01;;;;;;;4.53;1.20;;;14.70;99.90;;;;;;5001494;28;20204;-60
2023/10/29 08:04:28;;;;;;;3.03;2.37;;;14.70;99.90;;;;;;5001605;28;20211;-59
2023/10/29 08:06:56;;;;;;;5.80;1.43;;;14.90;99.90;;;;;;5004408;28;20673;-59
2023/10/29 08:09:23;;;;;;;6.97;1.37;;;15.00;99.90;;;;;;5004881;28;20265;-59
2023/10/29 08:11:50;;;;;;;3.87;1.30;;;15.10;99.90;;;;;;5001727;28;20644;-59
2023/10/29 08:14:16;;;;;;;10.00;4.07;;;15.20;99.90;;;;;;5000306;28;20208;-59
2023/10/29 08:16:43;;;;;;;5.35;2.42;;;15.40;99.90;;;;;;5003036;28;20218;-58
2023/10/29 08:19:10;;;;;;;1.83;1.38;;;15.60;99.90;;;;;;5004607;28;20199;-60
2023/10/29 08:21:37;;;;;;;4.47;3.10;;;15.90;99.90;;;;;;5003445;28;20289;-58
2023/10/29 08:24:06;;;;;;;2.87;1.60;;;16.20;99.90;;;;;;5001258;28;20199;-58
2023/10/29 08:26:33;;;;;;;3.50;1.55;;;16.40;99.90;;;;;;5001165;28;20208;-58
2023/10/29 08:29:00;;;;;;;2.03;1.42;;;16.70;99.90;;;;;;5004415;28;20692;-59
2023/10/29 08:31:26;;;;;;;3.05;1.38;;;17.10;99.90;;;;;;5004103;28;20226;-59
2023/10/29 08:33:54;;;;;;;2.78;1.50;;;17.50;99.90;;;;;;5001197;28;20588;-59
2023/10/29 08:36:21;;;;;;;3.10;1.30;;;17.80;99.90;;;;;;5000944;28;20709;-60
2023/10/29 08:38:48;;;;;;;2.53;1.40;;;18.00;99.90;;;;;;5003529;28;20215;-60
2023/10/29 08:41:17;;;;;;;5.55;1.90;;;18.20;99.90;;;;;;5003835;28;20605;-60
2023/10/29 08:43:44;;;;;;;3.65;2.03;;;18.20;99.90;;;;;;5002612;28;20206;-60
2023/10/29 08:46:11;;;;;;;2.22;1.60;;;18.30;99.90;;;;;;5000809;28;20210;-60
2023/10/29 08:48:37;;;;;;;3.50;1.80;;;18.30;99.90;;;;;;5001384;28;20211;-59
2023/10/29 08:51:05;;;;;;;5.50;1.70;;;18.40;99.90;;;;;;5004125;28;20231;-59
2023/10/29 08:53:31;;;;;;;4.25;1.90;;;18.10;99.90;;;;;;5004405;28;20215;-60
2023/10/29 08:55:58;;;;;;;4.35;1.98;;;18.20;99.90;;;;;;5004134;28;20206;-61
2023/10/29 08:58:26;;;;;;;3.85;1.67;;;18.20;99.90;;;;;;5004545;28;20203;-59
2023/10/29 09:00:57;;;;;;;5.75;1.70;;;18.30;99.90;;;;;;5000727;28;20663;-60
2023/10/29 09:03:24;;;;;;;3.55;1.80;;;18.20;99.90;;;;;;5000448;28;20199;-59
2023/10/29 09:05:51;;;;;;;2.85;1.20;;;18.00;99.90;;;;;;5003034;28;20243;-59
2023/10/29 09:08:18;;;;;;;3.17;1.20;;;18.00;99.90;;;;;;5003757;28;20285;-59
2023/10/29 09:10:45;;;;;;;3.22;1.40;;;18.00;99.90;;;;;;5001781;28;20246;-60
2023/10/29 09:13:12;;;;;;;3.88;1.60;;;18.00;99.90;;;;;;5000121;28;20242;-60
2023/10/29 09:15:41;;;;;;;2.55;1.40;;;18.10;99.90;;;;;;5001089;28;20212;-61
2023/10/29 09:18:08;;;;;;;3.58;1.63;;;18.10;99.90;;;;;;5003747;28;20249;-60
2023/10/29 09:20:38;;;;;;;3.67;1.70;;;18.10;99.90;;;;;;5003562;28;20223;-60
2023/10/29 09:23:05;;;;;;;2.00;1.52;;;18.00;99.90;;;;;;5000212;28;20291;-60
2023/10/29 09:25:32;;;;;;;4.50;2.15;;;18.00;99.90;;;;;;5000006;28;20200;-60
2023/10/29 09:27:59;;;;;;;4.35;2.03;;;18.00;99.90;;;;;;5000037;28;20204;-60
2023/10/29 09:30:25;;;;;;;2.25;1.58;;;18.00;99.90;;;;;;4999959;28;20219;-59
2023/10/29 09:32:54;;;;;;;5.22;2.10;;;18.00;99.90;;;;;;5002579;28;20228;-59
2023/10/29 09:35:21;;;;;;;4.47;1.83;;;17.90;99.90;;;;;;5003329;28;20651;-58
2023/10/29 09:37:47;;;;;;;3.80;1.70;;;17.90;99.90;;;;;;5001578;28;20207;-60
2023/10/29 09:40:18;;;;;;;4.57;1.50;;;17.90;99.90;;;;;;4999909;28;20226;-60
2023/10/29 09:42:53;;;;;;;2.28;1.65;;;17.80;99.90;;;;;;5001228;28;20210;-60
2023/10/29 09:45:23;;;;;;;3.35;2.45;;;17.70;99.90;;;;;;5003411;28;20241;-59
2023/10/29 09:47:50;;;;;;;3.70;1.73;;;17.50;99.90;;;;;;5001236;28;20390;-59
2023/10/29 09:50:19;;;;;;;2.85;1.63;;;17.30;99.90;;;;;;4999862;28;20258;-59
2023/10/29 09:52:49;;;;;;;3.17;1.60;;;16.90;99.90;;;;;;5001249;28;20310;-59
2023/10/29 09:55:17;;;;;;;5.70;1.88;;;16.80;99.90;;;;;;5003434;28;20206;-61
2023/10/29 09:57:44;;;;;;;4.43;1.63;;;16.60;99.90;;;;;;5000369;28;20207;-60
2023/10/29 10:00:12;;;;;;;3.97;1.65;;;16.50;99.90;;;;;;4999104;28;20314;-60
2023/10/29 10:02:50;;;;;;;4.95;1.67;;;16.40;99.90;;;;;;4999959;28;20291;-60
2023/10/29 10:05:20;;;;;;;3.00;1.60;;;16.40;99.90;;;;;;5003156;28;20244;-64
2023/10/29 10:07:46;;;;;;;4.50;2.05;;;16.40;99.90;;;;;;5000847;28;20264;-61
2023/10/29 10:10:13;;;;;;;2.85;1.73;;;16.60;99.90;;;;;;5004571;28;20231;-57
2023/10/29 10:12:46;;;;;;;2.40;1.52;;;16.60;99.90;;;;;;5001904;28;20280;-57
2023/10/29 10:15:14;;;;;;;7.80;1.75;;;16.70;99.90;;;;;;5005122;28;20290;-57
2023/10/29 10:17:46;;;;;;;4.00;1.77;;;16.80;99.90;;;;;;5002273;28;20261;-58
2023/10/29 10:20:14;;;;;;;5.15;1.63;;;17.00;99.90;;;;;;4999843;28;20251;-58
2023/10/29 10:22:43;;;;;;;2.22;1.40;;;17.10;99.90;;;;;;4999888;28;20204;-58
2023/10/29 10:25:17;;;;;;;7.25;1.60;;;17.10;99.90;;;;;;5003032;28;20205;-58
2023/10/29 10:27:51;;;;;;;2.60;1.15;;;17.10;99.90;;;;;;5001907;28;20632;-58
2023/10/29 10:30:25;;;;;;;2.35;1.42;;;17.00;99.90;;;;;;4999717;28;20258;-58
2023/10/29 10:32:52;;;;;;;2.55;1.23;;;16.90;99.90;;;;;;5000980;28;20227;-58
2023/10/29 10:35:19;;;;;;;4.72;1.23;;;16.90;99.90;;;;;;5005266;28;20207;-58
2023/10/29 10:37:54;;;;;;;1.88;1.25;;;17.00;99.90;;;;;;5003059;28;20234;-58
2023/10/29 10:40:26;;;;;;;3.50;1.25;;;16.90;99.90;;;;;;5006678;28;20250;-57
2023/10/29 10:42:55;;;;;;;1.67;1.08;;;17.10;99.90;;;;;;5004081;28;20658;-57
2023/10/29 10:45:26;;;;;;;2.28;1.30;;;17.10;99.90;;;;;;5002806;28;20943;-56
2023/10/29 10:47:56;;;;;;;5.30;1.80;;;17.20;99.90;;;;;;5011328;28;20211;-60
2023/10/29 10:50:24;;;;;;;5.40;1.80;;;17.30;99.90;;;;;;5009395;28;20270;-59
2023/10/29 10:52:53;;;;;;;2.15;1.63;;;17.30;99.90;;;;;;5003715;28;20707;-57
2023/10/29 10:55:19;;;;;;;4.68;2.20;;;17.20;99.90;;;;;;5008819;28;20203;-58
2023/10/29 10:57:48;;;;;;;2.35;1.30;;;17.10;99.90;;;;;;5004510;28;20207;-58
2023/10/29 11:00:16;;;;;;;2.53;1.58;;;17.10;99.90;;;;;;5003073;28;20226;-59
2023/10/29 11:02:44;;;;;;;3.22;1.88;;;17.10;99.90;;;;;;5010881;28;20226;-59
2023/10/29 11:05:11;;;;;;;2.03;1.63;;;17.20;99.90;;;;;;5007312;28;20587;-58
2023/10/29 11:07:40;;;;;;;2.42;1.33;;;17.30;99.90;;;;;;5005510;28;20217;-58
2023/10/29 11:10:09;;;;;;;2.45;1.80;;;17.20;99.90;;;;;;5002410;28;20315;-60
2023/10/29 11:12:36;;;;;;;2.08;1.30;;;17.20;99.90;;;;;;5002236;28;20220;-58
2023/10/29 11:15:13;;;;;;;3.47;1.90;;;17.30;99.90;;;;;;5002504;28;20243;-58
2023/10/29 11:17:59;;;;;;;3.60;1.60;;;17.20;99.90;;;;;;5002687;28;20238;-58
2023/10/29 11:20:53;;;;;;;3.30;1.98;;;17.40;99.90;;;;;;5005790;28;20583;-58
2023/10/29 11:23:25;;;;;;;1.77;1.23;;;17.60;99.90;;;;;;5002482;28;20211;-58
2023/10/29 11:26:21;;;;;;;1.60;1.40;;;17.80;99.90;;;;;;5004127;28;20204;-57
2023/10/29 11:28:48;;;;;;;2.63;1.40;;;17.80;99.90;;;;;;5004303;28;20580;-57
2023/10/29 11:31:16;;;;;;;3.15;1.40;;;17.90;99.90;;;;;;5001794;28;20713;-58
2023/10/29 11:33:44;;;;;;;1.75;1.30;;;18.10;99.90;;;;;;5002497;28;20227;-58
2023/10/29 11:36:31;;;;;;;1.48;1.00;;;18.20;99.90;;;;;;5005540;28;20204;-59
2023/10/29 11:39:22;;;;;;;3.30;1.40;;;18.40;99.90;;;;;;5002119;28;20748;-58
2023/10/29 11:41:52;;;;;;;2.35;1.08;;;18.60;99.90;;;;;;5003543;28;20212;-58
2023/10/29 11:44:22;;;;;;;1.23;0.90;;;18.80;99.90;;;;;;5005324;28;20230;-57
2023/10/29 11:47:07;;;;;;;1.38;1.08;;;19.00;99.90;;;;;;5003626;28;20214;-58
2023/10/29 11:50:10;;;;;;;2.42;1.10;;;19.30;99.90;;;;;;5001582;28;20203;-57
2023/10/29 11:52:43;;;;;;;2.63;1.02;;;19.60;99.90;;;;;;4925238;29;20226;-59
2023/10/29 11:55:12;;;;;;;1.65;0.47;;;19.80;99.90;;;;;;4929236;29;20301;-58
2023/10/29 11:57:45;;;;;;;12.02;10.82;;;19.90;99.90;;;;;;4963629;28;20299;-59
2023/10/29 12:00:13;;;;;;;3.22;1.83;;;20.20;99.90;;;;;;5004755;28;20226;-59
2023/10/29 12:02:39;;;;;;;2.60;1.00;;;20.50;99.90;;;;;;5004327;28;20290;-59
2023/10/29 12:05:10;;;;;;;1.90;1.10;;;20.70;99.90;;;;;;5001461;28;20247;-58
2023/10/29 12:07:36;;;;;;;1.92;1.02;;;20.60;99.90;;;;;;5001638;28;20254;-58
2023/10/29 12:10:04;;;;;;;1.00;0.70;;;21.00;99.90;;;;;;5004616;28;20227;-58
2023/10/29 12:12:31;;;;;;;1.45;0.98;;;21.10;99.90;;;;;;5004406;28;20265;-58
2023/10/29 12:15:00;;;;;;;1.33;1.15;;;21.10;99.90;;;;;;5001857;28;20233;-58
2023/10/29 12:17:28;;;;;;;1.48;1.00;;;21.20;99.90;;;;;;5001880;28;20266;-59
2023/10/29 12:19:55;;;;;;;1.80;1.40;;;21.30;99.90;;;;;;5003417;28;20228;-58
2023/10/29 12:22:23;;;;;;;4.68;1.73;;;21.60;99.90;;;;;;5004458;28;20206;-59
2023/10/29 12:24:53;;;;;;;2.03;1.40;;;22.00;99.90;;;;;;5002872;28;20641;-59
2023/10/29 12:27:21;;;;;;;1.60;1.02;;;22.20;99.90;;;;;;5001222;28;20218;-59
2023/10/29 12:29:48;;;;;;;1.95;0.80;;;22.30;99.90;;;;;;5002276;28;20310;-60
2023/10/29 12:32:22;;;;;;;2.05;0.93;;;22.60;99.90;;;;;;5004042;28;20203;-59
2023/10/29 12:34:50;;;;;;;1.67;0.70;;;23.00;99.80;;;;;;5002738;28;20211;-59
2023/10/29 12:37:24;;;;;;;3.20;0.65;;;23.20;99.10;;;;;;5000699;28;20235;-57
2023/10/29 12:39:53;;;;;;;1.92;0.70;;;23.40;98.30;;;;;;5002249;28;20231;-58
2023/10/29 12:42:21;;;;;;;1.60;0.98;;;23.40;97.70;;;;;;5004641;28;20294;-58
2023/10/29 12:44:54;;;;;;;1.85;0.82;;;23.40;97.30;;;;;;5003299;28;20211;-58
2023/10/29 12:47:23;;;;;;;2.35;1.33;;;23.50;97.30;;;;;;5000785;28;20287;-58
2023/10/29 12:50:00;;;;;;;1.92;1.35;;;23.50;96.90;;;;;;5001696;28;20231;-58